sensor_id;sensor_type;location;lat;lon;timestamp;P1;durP1;ratioP1;P2;durP2;ratioP2
66342;SDS011;53144;51.524;5.080;2022-11-21T00:03:49;10.63;;;2.47;;
66342;SDS011;53144;51.524;5.080;2022-11-21T00:06:14;19.05;;;3.53;;
66342;SDS011;53144;51.524;5.080;2022-11-21T00:08:43;11.73;;;2.50;;
66342;SDS011;53144;51.524;5.080;2022-11-21T00:11:11;13.02;;;2.97;;
66342;SDS011;53144;51.524;5.080;2022-11-21T00:16:08;14.85;;;2.40;;
66342;SDS011;53144;51.524;5.080;2022-11-21T00:18:36;23.13;;;3.72;;
66342;SDS011;53144;51.524;5.080;2022-11-21T00:21:03;15.70;;;2.88;;
66342;SDS011;53144;51.524;5.080;2022-11-21T00:23:32;14.65;;;2.67;;
66342;SDS011;53144;51.524;5.080;2022-11-21T00:26:05;12.43;;;2.78;;
66342;SDS011;53144;51.524;5.080;2022-11-21T00:28:32;13.63;;;2.85;;
66342;SDS011;53144;51.524;5.080;2022-11-21T00:30:58;10.80;;;2.97;;
66342;SDS011;53144;51.524;5.080;2022-11-21T00:33:24;10.45;;;2.60;;
66342;SDS011;53144;51.524;5.080;2022-11-21T00:35:49;8.95;;;2.70;;
66342;SDS011;53144;51.524;5.080;2022-11-21T00:38:15;10.95;;;2.92;;
66342;SDS011;53144;51.524;5.080;2022-11-21T00:40:43;10.10;;;2.90;;
66342;SDS011;53144;51.524;5.080;2022-11-21T00:43:12;12.63;;;2.90;;
66342;SDS011;53144;51.524;5.080;2022-11-21T00:45:41;12.55;;;2.30;;
66342;SDS011;53144;51.524;5.080;2022-11-21T00:48:06;9.88;;;2.42;;
66342;SDS011;53144;51.524;5.080;2022-11-21T00:50:32;9.70;;;2.78;;
66342;SDS011;53144;51.524;5.080;2022-11-21T00:52:57;12.65;;;2.83;;
66342;SDS011;53144;51.524;5.080;2022-11-21T00:55:23;12.98;;;2.67;;
66342;SDS011;53144;51.524;5.080;2022-11-21T01:00:17;10.60;;;3.03;;
66342;SDS011;53144;51.524;5.080;2022-11-21T01:02:43;9.73;;;2.60;;
66342;SDS011;53144;51.524;5.080;2022-11-21T01:05:08;14.45;;;2.67;;
66342;SDS011;53144;51.524;5.080;2022-11-21T01:07:34;13.20;;;3.20;;
66342;SDS011;53144;51.524;5.080;2022-11-21T01:10:00;8.95;;;2.50;;
66342;SDS011;53144;51.524;5.080;2022-11-21T01:12:28;10.73;;;2.25;;
66342;SDS011;53144;51.524;5.080;2022-11-21T01:14:53;10.10;;;2.33;;
66342;SDS011;53144;51.524;5.080;2022-11-21T01:17:18;12.50;;;2.77;;
66342;SDS011;53144;51.524;5.080;2022-11-21T01:19:44;8.48;;;2.40;;
66342;SDS011;53144;51.524;5.080;2022-11-21T01:22:12;15.75;;;3.42;;
66342;SDS011;53144;51.524;5.080;2022-11-21T01:24:38;10.55;;;3.35;;
66342;SDS011;53144;51.524;5.080;2022-11-21T01:27:03;7.10;;;3.03;;
66342;SDS011;53144;51.524;5.080;2022-11-21T01:29:31;12.70;;;2.67;;
66342;SDS011;53144;51.524;5.080;2022-11-21T01:31:57;13.23;;;3.22;;
66342;SDS011;53144;51.524;5.080;2022-11-21T01:34:22;8.73;;;2.65;;
66342;SDS011;53144;51.524;5.080;2022-11-21T01:36:47;13.77;;;3.60;;
66342;SDS011;53144;51.524;5.080;2022-11-21T01:39:16;12.43;;;3.58;;
66342;SDS011;53144;51.524;5.080;2022-11-21T01:41:43;13.32;;;3.90;;
66342;SDS011;53144;51.524;5.080;2022-11-21T01:44:17;11.35;;;3.58;;
66342;SDS011;53144;51.524;5.080;2022-11-21T01:46:48;13.95;;;3.50;;
66342;SDS011;53144;51.524;5.080;2022-11-21T01:54:28;13.55;;;3.13;;
66342;SDS011;53144;51.524;5.080;2022-11-21T01:57:18;9.38;;;3.00;;
66342;SDS011;53144;51.524;5.080;2022-11-21T01:59:51;11.40;;;3.10;;
66342;SDS011;53144;51.524;5.080;2022-11-21T02:02:36;14.30;;;3.40;;
66342;SDS011;53144;51.524;5.080;2022-11-21T02:05:08;12.52;;;3.25;;
66342;SDS011;53144;51.524;5.080;2022-11-21T02:07:42;14.57;;;3.35;;
66342;SDS011;53144;51.524;5.080;2022-11-21T02:10:11;11.38;;;3.10;;
66342;SDS011;53144;51.524;5.080;2022-11-21T02:12:54;11.32;;;2.67;;
66342;SDS011;53144;51.524;5.080;2022-11-21T02:15:22;17.90;;;3.85;;
66342;SDS011;53144;51.524;5.080;2022-11-21T02:17:49;14.00;;;3.25;;
66342;SDS011;53144;51.524;5.080;2022-11-21T02:20:18;9.20;;;2.80;;
66342;SDS011;53144;51.524;5.080;2022-11-21T02:25:28;7.50;;;2.83;;
66342;SDS011;53144;51.524;5.080;2022-11-21T02:27:58;13.77;;;3.10;;
66342;SDS011;53144;51.524;5.080;2022-11-21T02:30:27;14.73;;;3.05;;
66342;SDS011;53144;51.524;5.080;2022-11-21T02:32:54;12.52;;;3.38;;
66342;SDS011;53144;51.524;5.080;2022-11-21T02:35:20;22.10;;;4.05;;
66342;SDS011;53144;51.524;5.080;2022-11-21T02:37:53;17.73;;;3.60;;
66342;SDS011;53144;51.524;5.080;2022-11-21T02:40:26;13.63;;;3.45;;
66342;SDS011;53144;51.524;5.080;2022-11-21T02:43:15;11.10;;;4.95;;
66342;SDS011;53144;51.524;5.080;2022-11-21T02:45:48;11.35;;;4.07;;
66342;SDS011;53144;51.524;5.080;2022-11-21T02:48:13;10.45;;;4.20;;
66342;SDS011;53144;51.524;5.080;2022-11-21T02:50:40;13.00;;;4.93;;
66342;SDS011;53144;51.524;5.080;2022-11-21T02:53:07;12.15;;;5.20;;
66342;SDS011;53144;51.524;5.080;2022-11-21T02:55:34;11.48;;;5.10;;
66342;SDS011;53144;51.524;5.080;2022-11-21T02:58:00;9.02;;;4.50;;
66342;SDS011;53144;51.524;5.080;2022-11-21T03:00:29;6.97;;;2.97;;
66342;SDS011;53144;51.524;5.080;2022-11-21T03:02:57;8.55;;;2.28;;
66342;SDS011;53144;51.524;5.080;2022-11-21T03:05:23;11.68;;;2.42;;
66342;SDS011;53144;51.524;5.080;2022-11-21T03:07:48;6.68;;;2.00;;
66342;SDS011;53144;51.524;5.080;2022-11-21T03:10:14;19.73;;;2.97;;
66342;SDS011;53144;51.524;5.080;2022-11-21T03:12:40;6.15;;;1.90;;
66342;SDS011;53144;51.524;5.080;2022-11-21T03:15:07;10.93;;;2.08;;
66342;SDS011;53144;51.524;5.080;2022-11-21T03:17:38;8.73;;;2.50;;
66342;SDS011;53144;51.524;5.080;2022-11-21T03:20:05;8.85;;;2.60;;
66342;SDS011;53144;51.524;5.080;2022-11-21T03:22:31;5.75;;;2.28;;
66342;SDS011;53144;51.524;5.080;2022-11-21T03:27:22;6.72;;;2.25;;
66342;SDS011;53144;51.524;5.080;2022-11-21T03:29:47;5.93;;;2.23;;
66342;SDS011;53144;51.524;5.080;2022-11-21T03:32:13;7.80;;;2.35;;
66342;SDS011;53144;51.524;5.080;2022-11-21T03:34:39;10.70;;;2.45;;
66342;SDS011;53144;51.524;5.080;2022-11-21T03:37:07;5.65;;;2.08;;
66342;SDS011;53144;51.524;5.080;2022-11-21T03:39:33;6.78;;;2.28;;
66342;SDS011;53144;51.524;5.080;2022-11-21T03:41:59;9.48;;;2.47;;
66342;SDS011;53144;51.524;5.080;2022-11-21T03:44:24;8.80;;;2.45;;
66342;SDS011;53144;51.524;5.080;2022-11-21T03:46:50;10.35;;;2.47;;
66342;SDS011;53144;51.524;5.080;2022-11-21T03:49:17;6.43;;;2.20;;
66342;SDS011;53144;51.524;5.080;2022-11-21T03:51:43;6.85;;;2.33;;
66342;SDS011;53144;51.524;5.080;2022-11-21T03:54:09;7.10;;;2.22;;
66342;SDS011;53144;51.524;5.080;2022-11-21T03:56:35;7.78;;;2.42;;
66342;SDS011;53144;51.524;5.080;2022-11-21T03:59:04;12.00;;;3.92;;
66342;SDS011;53144;51.524;5.080;2022-11-21T04:01:29;10.95;;;2.70;;
66342;SDS011;53144;51.524;5.080;2022-11-21T04:03:55;11.00;;;3.33;;
66342;SDS011;53144;51.524;5.080;2022-11-21T04:06:24;11.80;;;2.55;;
66342;SDS011;53144;51.524;5.080;2022-11-21T04:08:49;4.47;;;2.67;;
66342;SDS011;53144;51.524;5.080;2022-11-21T04:11:15;8.73;;;2.95;;
66342;SDS011;53144;51.524;5.080;2022-11-21T04:13:41;8.50;;;3.15;;
66342;SDS011;53144;51.524;5.080;2022-11-21T04:16:06;7.38;;;2.78;;
66342;SDS011;53144;51.524;5.080;2022-11-21T04:18:35;11.98;;;2.90;;
66342;SDS011;53144;51.524;5.080;2022-11-21T04:21:01;10.07;;;3.30;;
66342;SDS011;53144;51.524;5.080;2022-11-21T04:23:31;10.60;;;2.85;;
66342;SDS011;53144;51.524;5.080;2022-11-21T04:25:57;12.82;;;2.97;;
66342;SDS011;53144;51.524;5.080;2022-11-21T04:28:23;13.05;;;3.00;;
66342;SDS011;53144;51.524;5.080;2022-11-21T04:30:49;7.97;;;2.92;;
66342;SDS011;53144;51.524;5.080;2022-11-21T04:33:17;5.72;;;2.55;;
66342;SDS011;53144;51.524;5.080;2022-11-21T04:35:43;8.50;;;2.70;;
66342;SDS011;53144;51.524;5.080;2022-11-21T04:38:12;7.47;;;2.60;;
66342;SDS011;53144;51.524;5.080;2022-11-21T04:40:38;7.95;;;2.63;;
66342;SDS011;53144;51.524;5.080;2022-11-21T04:43:04;13.48;;;2.70;;
66342;SDS011;53144;51.524;5.080;2022-11-21T04:45:30;10.90;;;3.92;;
66342;SDS011;53144;51.524;5.080;2022-11-21T04:47:57;14.57;;;3.83;;
66342;SDS011;53144;51.524;5.080;2022-11-21T04:50:23;10.85;;;4.13;;
66342;SDS011;53144;51.524;5.080;2022-11-21T04:52:49;14.13;;;3.63;;
66342;SDS011;53144;51.524;5.080;2022-11-21T04:55:15;10.57;;;4.15;;
66342;SDS011;53144;51.524;5.080;2022-11-21T04:57:44;11.65;;;4.38;;
66342;SDS011;53144;51.524;5.080;2022-11-21T05:00:10;15.23;;;4.75;;
66342;SDS011;53144;51.524;5.080;2022-11-21T05:02:36;10.63;;;4.68;;
66342;SDS011;53144;51.524;5.080;2022-11-21T05:05:02;19.88;;;5.65;;
66342;SDS011;53144;51.524;5.080;2022-11-21T05:07:27;13.05;;;5.78;;
66342;SDS011;53144;51.524;5.080;2022-11-21T05:09:53;15.07;;;5.88;;
66342;SDS011;53144;51.524;5.080;2022-11-21T05:12:18;10.85;;;6.00;;
66342;SDS011;53144;51.524;5.080;2022-11-21T05:15:02;14.38;;;6.60;;
66342;SDS011;53144;51.524;5.080;2022-11-21T05:17:28;17.05;;;7.47;;
66342;SDS011;53144;51.524;5.080;2022-11-21T05:19:53;15.68;;;9.10;;
66342;SDS011;53144;51.524;5.080;2022-11-21T05:22:22;15.55;;;8.75;;
66342;SDS011;53144;51.524;5.080;2022-11-21T05:24:50;19.30;;;8.43;;
66342;SDS011;53144;51.524;5.080;2022-11-21T05:27:15;19.77;;;9.75;;
66342;SDS011;53144;51.524;5.080;2022-11-21T05:29:41;14.63;;;8.77;;
66342;SDS011;53144;51.524;5.080;2022-11-21T05:32:06;21.83;;;9.52;;
66342;SDS011;53144;51.524;5.080;2022-11-21T05:34:31;16.33;;;8.98;;
66342;SDS011;53144;51.524;5.080;2022-11-21T05:36:57;14.40;;;9.30;;
66342;SDS011;53144;51.524;5.080;2022-11-21T05:39:23;17.60;;;9.70;;
66342;SDS011;53144;51.524;5.080;2022-11-21T05:41:49;23.88;;;10.57;;
66342;SDS011;53144;51.524;5.080;2022-11-21T05:44:17;22.60;;;11.82;;
66342;SDS011;53144;51.524;5.080;2022-11-21T05:46:43;18.02;;;10.27;;
66342;SDS011;53144;51.524;5.080;2022-11-21T05:51:35;23.70;;;10.73;;
66342;SDS011;53144;51.524;5.080;2022-11-21T05:54:01;21.98;;;11.20;;
66342;SDS011;53144;51.524;5.080;2022-11-21T05:56:26;23.80;;;11.70;;
66342;SDS011;53144;51.524;5.080;2022-11-21T05:58:55;26.60;;;12.55;;
66342;SDS011;53144;51.524;5.080;2022-11-21T06:01:22;28.95;;;13.90;;
66342;SDS011;53144;51.524;5.080;2022-11-21T06:04:06;25.05;;;14.30;;
66342;SDS011;53144;51.524;5.080;2022-11-21T06:06:32;27.73;;;15.45;;
66342;SDS011;53144;51.524;5.080;2022-11-21T06:08:58;27.92;;;17.00;;
66342;SDS011;53144;51.524;5.080;2022-11-21T06:11:26;27.58;;;16.80;;
66342;SDS011;53144;51.524;5.080;2022-11-21T06:13:52;27.88;;;16.10;;
66342;SDS011;53144;51.524;5.080;2022-11-21T06:16:18;29.27;;;15.80;;
66342;SDS011;53144;51.524;5.080;2022-11-21T06:18:47;28.52;;;14.93;;
66342;SDS011;53144;51.524;5.080;2022-11-21T06:23:46;27.45;;;14.80;;
66342;SDS011;53144;51.524;5.080;2022-11-21T06:26:17;24.70;;;14.18;;
66342;SDS011;53144;51.524;5.080;2022-11-21T06:28:44;25.95;;;13.88;;
66342;SDS011;53144;51.524;5.080;2022-11-21T06:31:11;24.30;;;14.65;;
66342;SDS011;53144;51.524;5.080;2022-11-21T06:33:38;21.77;;;13.55;;
66342;SDS011;53144;51.524;5.080;2022-11-21T06:36:15;27.88;;;14.38;;
66342;SDS011;53144;51.524;5.080;2022-11-21T06:38:41;30.77;;;15.13;;
66342;SDS011;53144;51.524;5.080;2022-11-21T06:41:18;26.85;;;14.55;;
66342;SDS011;53144;51.524;5.080;2022-11-21T06:43:46;23.90;;;15.18;;
66342;SDS011;53144;51.524;5.080;2022-11-21T06:46:12;27.98;;;16.27;;
66342;SDS011;53144;51.524;5.080;2022-11-21T06:48:39;29.52;;;14.65;;
66342;SDS011;53144;51.524;5.080;2022-11-21T06:51:06;25.77;;;15.55;;
66342;SDS011;53144;51.524;5.080;2022-11-21T06:53:35;28.10;;;16.67;;
66342;SDS011;53144;51.524;5.080;2022-11-21T06:56:00;24.33;;;14.70;;
66342;SDS011;53144;51.524;5.080;2022-11-21T06:58:27;27.65;;;14.98;;
66342;SDS011;53144;51.524;5.080;2022-11-21T07:03:18;25.25;;;14.43;;
66342;SDS011;53144;51.524;5.080;2022-11-21T07:05:44;25.55;;;14.48;;
66342;SDS011;53144;51.524;5.080;2022-11-21T07:08:09;19.92;;;13.82;;
66342;SDS011;53144;51.524;5.080;2022-11-21T07:10:34;19.08;;;13.25;;
66342;SDS011;53144;51.524;5.080;2022-11-21T07:13:00;19.90;;;12.38;;
66342;SDS011;53144;51.524;5.080;2022-11-21T07:15:45;22.05;;;12.57;;
66342;SDS011;53144;51.524;5.080;2022-11-21T07:18:12;21.13;;;11.77;;
66342;SDS011;53144;51.524;5.080;2022-11-21T07:20:38;22.17;;;11.93;;
66342;SDS011;53144;51.524;5.080;2022-11-21T07:23:07;16.08;;;10.32;;
66342;SDS011;53144;51.524;5.080;2022-11-21T07:25:33;17.75;;;10.77;;
66342;SDS011;53144;51.524;5.080;2022-11-21T07:27:59;18.75;;;10.73;;
66342;SDS011;53144;51.524;5.080;2022-11-21T07:30:26;20.33;;;9.45;;
66342;SDS011;53144;51.524;5.080;2022-11-21T07:32:55;18.40;;;9.57;;
66342;SDS011;53144;51.524;5.080;2022-11-21T07:35:21;14.75;;;9.25;;
66342;SDS011;53144;51.524;5.080;2022-11-21T07:37:51;20.55;;;8.75;;
66342;SDS011;53144;51.524;5.080;2022-11-21T07:40:17;15.98;;;8.57;;
66342;SDS011;53144;51.524;5.080;2022-11-21T07:42:48;14.20;;;9.00;;
66342;SDS011;53144;51.524;5.080;2022-11-21T07:45:35;14.80;;;9.07;;
66342;SDS011;53144;51.524;5.080;2022-11-21T07:48:15;15.05;;;8.45;;
66342;SDS011;53144;51.524;5.080;2022-11-21T07:50:44;15.80;;;9.73;;
66342;SDS011;53144;51.524;5.080;2022-11-21T07:53:10;18.05;;;9.07;;
66342;SDS011;53144;51.524;5.080;2022-11-21T07:55:36;16.65;;;9.07;;
66342;SDS011;53144;51.524;5.080;2022-11-21T07:58:07;16.02;;;8.80;;
66342;SDS011;53144;51.524;5.080;2022-11-21T08:00:34;18.05;;;8.90;;
66342;SDS011;53144;51.524;5.080;2022-11-21T08:03:02;15.32;;;7.93;;
66342;SDS011;53144;51.524;5.080;2022-11-21T08:05:34;13.43;;;7.88;;
66342;SDS011;53144;51.524;5.080;2022-11-21T08:08:07;17.35;;;7.78;;
66342;SDS011;53144;51.524;5.080;2022-11-21T08:10:37;13.90;;;7.45;;
66342;SDS011;53144;51.524;5.080;2022-11-21T08:13:10;19.73;;;7.97;;
66342;SDS011;53144;51.524;5.080;2022-11-21T08:15:36;13.90;;;7.72;;
66342;SDS011;53144;51.524;5.080;2022-11-21T08:18:08;12.27;;;7.13;;
66342;SDS011;53144;51.524;5.080;2022-11-21T08:20:35;13.63;;;7.90;;
66342;SDS011;53144;51.524;5.080;2022-11-21T08:23:01;17.13;;;7.70;;
66342;SDS011;53144;51.524;5.080;2022-11-21T08:25:26;20.17;;;8.75;;
66342;SDS011;53144;51.524;5.080;2022-11-21T08:27:55;13.43;;;7.90;;
66342;SDS011;53144;51.524;5.080;2022-11-21T08:30:21;13.68;;;7.32;;
66342;SDS011;53144;51.524;5.080;2022-11-21T08:32:46;14.57;;;6.90;;
66342;SDS011;53144;51.524;5.080;2022-11-21T08:35:11;16.08;;;7.22;;
66342;SDS011;53144;51.524;5.080;2022-11-21T08:37:37;14.80;;;7.40;;
66342;SDS011;53144;51.524;5.080;2022-11-21T08:40:03;14.77;;;6.45;;
66342;SDS011;53144;51.524;5.080;2022-11-21T08:42:31;16.00;;;6.80;;
66342;SDS011;53144;51.524;5.080;2022-11-21T08:45:02;12.38;;;7.18;;
66342;SDS011;53144;51.524;5.080;2022-11-21T08:47:32;18.83;;;6.60;;
66342;SDS011;53144;51.524;5.080;2022-11-21T08:50:00;15.73;;;7.00;;
66342;SDS011;53144;51.524;5.080;2022-11-21T08:52:26;13.70;;;6.53;;
66342;SDS011;53144;51.524;5.080;2022-11-21T08:55:01;9.25;;;5.25;;
66342;SDS011;53144;51.524;5.080;2022-11-21T08:57:27;13.82;;;5.43;;
66342;SDS011;53144;51.524;5.080;2022-11-21T08:59:52;8.43;;;5.80;;
66342;SDS011;53144;51.524;5.080;2022-11-21T09:02:18;12.82;;;5.30;;
66342;SDS011;53144;51.524;5.080;2022-11-21T09:04:51;9.85;;;4.78;;
66342;SDS011;53144;51.524;5.080;2022-11-21T09:07:17;18.65;;;5.57;;
66342;SDS011;53144;51.524;5.080;2022-11-21T09:10:00;9.65;;;5.22;;
66342;SDS011;53144;51.524;5.080;2022-11-21T09:12:26;11.85;;;5.00;;
66342;SDS011;53144;51.524;5.080;2022-11-21T09:14:52;14.80;;;4.78;;
66342;SDS011;53144;51.524;5.080;2022-11-21T09:17:37;8.10;;;4.07;;
66342;SDS011;53144;51.524;5.080;2022-11-21T09:20:20;8.73;;;3.90;;
66342;SDS011;53144;51.524;5.080;2022-11-21T09:22:46;8.48;;;3.95;;
66342;SDS011;53144;51.524;5.080;2022-11-21T09:25:19;6.70;;;3.38;;
66342;SDS011;53144;51.524;5.080;2022-11-21T09:27:44;10.20;;;3.55;;
66342;SDS011;53144;51.524;5.080;2022-11-21T09:30:10;9.32;;;3.25;;
66342;SDS011;53144;51.524;5.080;2022-11-21T09:32:36;11.35;;;3.88;;
66342;SDS011;53144;51.524;5.080;2022-11-21T09:35:01;8.57;;;3.50;;
66342;SDS011;53144;51.524;5.080;2022-11-21T09:40:00;8.38;;;3.22;;
66342;SDS011;53144;51.524;5.080;2022-11-21T09:45:24;7.22;;;3.25;;
66342;SDS011;53144;51.524;5.080;2022-11-21T09:47:54;5.15;;;2.78;;
66342;SDS011;53144;51.524;5.080;2022-11-21T09:50:36;7.53;;;2.70;;
66342;SDS011;53144;51.524;5.080;2022-11-21T09:53:07;7.45;;;3.03;;
66342;SDS011;53144;51.524;5.080;2022-11-21T09:55:49;5.93;;;2.88;;
66342;SDS011;53144;51.524;5.080;2022-11-21T09:58:30;8.02;;;3.40;;
66342;SDS011;53144;51.524;5.080;2022-11-21T10:01:09;7.10;;;3.10;;
66342;SDS011;53144;51.524;5.080;2022-11-21T10:03:44;7.50;;;3.03;;
66342;SDS011;53144;51.524;5.080;2022-11-21T10:26:22;5.32;;;2.65;;
66342;SDS011;53144;51.524;5.080;2022-11-21T10:29:42;11.75;;;3.17;;
66342;SDS011;53144;51.524;5.080;2022-11-21T10:32:39;9.30;;;2.75;;
66342;SDS011;53144;51.524;5.080;2022-11-21T10:35:51;10.30;;;3.00;;
66342;SDS011;53144;51.524;5.080;2022-11-21T10:38:10;4.78;;;2.47;;
66342;SDS011;53144;51.524;5.080;2022-11-21T10:40:45;9.30;;;3.03;;
66342;SDS011;53144;51.524;5.080;2022-11-21T10:46:20;13.05;;;3.13;;
66342;SDS011;53144;51.524;5.080;2022-11-21T10:48:53;6.20;;;2.70;;
66342;SDS011;53144;51.524;5.080;2022-11-21T10:54:12;7.35;;;2.90;;
66342;SDS011;53144;51.524;5.080;2022-11-21T10:57:16;8.35;;;2.78;;
66342;SDS011;53144;51.524;5.080;2022-11-21T11:05:24;7.53;;;2.97;;
66342;SDS011;53144;51.524;5.080;2022-11-21T11:11:04;11.82;;;2.67;;
66342;SDS011;53144;51.524;5.080;2022-11-21T11:13:49;7.35;;;2.78;;
66342;SDS011;53144;51.524;5.080;2022-11-21T11:16:32;8.70;;;3.17;;
66342;SDS011;53144;51.524;5.080;2022-11-21T11:19:16;6.78;;;2.55;;
66342;SDS011;53144;51.524;5.080;2022-11-21T11:21:47;8.70;;;2.92;;
66342;SDS011;53144;51.524;5.080;2022-11-21T11:29:22;7.18;;;2.60;;
66342;SDS011;53144;51.524;5.080;2022-11-21T11:32:11;6.40;;;2.40;;
66342;SDS011;53144;51.524;5.080;2022-11-21T11:35:05;8.23;;;2.60;;
66342;SDS011;53144;51.524;5.080;2022-11-21T11:49:32;6.47;;;2.83;;
66342;SDS011;53144;51.524;5.080;2022-11-21T11:52:35;7.63;;;2.30;;
66342;SDS011;53144;51.524;5.080;2022-11-21T11:55:22;8.23;;;2.40;;
66342;SDS011;53144;51.524;5.080;2022-11-21T12:06:25;7.68;;;2.13;;
66342;SDS011;53144;51.524;5.080;2022-11-21T12:09:04;7.45;;;2.40;;
66342;SDS011;53144;51.524;5.080;2022-11-21T12:14:37;7.18;;;2.13;;
66342;SDS011;53144;51.524;5.080;2022-11-21T12:17:47;5.82;;;2.25;;
66342;SDS011;53144;51.524;5.080;2022-11-21T12:20:29;8.38;;;2.30;;
66342;SDS011;53144;51.524;5.080;2022-11-21T12:23:08;6.85;;;2.28;;
66342;SDS011;53144;51.524;5.080;2022-11-21T12:25:41;4.65;;;1.98;;
66342;SDS011;53144;51.524;5.080;2022-11-21T13:22:47;9.25;;;2.47;;
66342;SDS011;53144;51.524;5.080;2022-11-21T14:10:46;7.22;;;2.83;;
66342;SDS011;53144;51.524;5.080;2022-11-21T14:13:35;6.35;;;2.40;;
66342;SDS011;53144;51.524;5.080;2022-11-21T14:19:48;9.90;;;3.30;;
66342;SDS011;53144;51.524;5.080;2022-11-21T14:25:53;9.88;;;3.20;;
66342;SDS011;53144;51.524;5.080;2022-11-21T14:35:18;11.57;;;4.07;;
66342;SDS011;53144;51.524;5.080;2022-11-21T14:38:27;10.13;;;4.72;;
66342;SDS011;53144;51.524;5.080;2022-11-21T14:41:37;18.02;;;3.80;;
66342;SDS011;53144;51.524;5.080;2022-11-21T14:44:18;8.70;;;3.08;;
66342;SDS011;53144;51.524;5.080;2022-11-21T14:46:47;14.73;;;3.50;;
66342;SDS011;53144;51.524;5.080;2022-11-21T14:49:23;7.45;;;2.83;;
66342;SDS011;53144;51.524;5.080;2022-11-21T14:54:51;12.57;;;2.90;;
66342;SDS011;53144;51.524;5.080;2022-11-21T14:57:23;9.77;;;3.25;;
66342;SDS011;53144;51.524;5.080;2022-11-21T15:00:05;7.75;;;2.40;;
66342;SDS011;53144;51.524;5.080;2022-11-21T15:02:52;7.65;;;2.83;;
66342;SDS011;53144;51.524;5.080;2022-11-21T15:05:20;9.00;;;2.83;;
66342;SDS011;53144;51.524;5.080;2022-11-21T15:07:50;7.93;;;2.80;;
66342;SDS011;53144;51.524;5.080;2022-11-21T15:10:16;12.85;;;3.10;;
66342;SDS011;53144;51.524;5.080;2022-11-21T15:13:08;9.13;;;3.15;;
66342;SDS011;53144;51.524;5.080;2022-11-21T15:15:52;7.93;;;3.25;;
66342;SDS011;53144;51.524;5.080;2022-11-21T15:18:23;12.68;;;3.20;;
66342;SDS011;53144;51.524;5.080;2022-11-21T15:20:53;8.93;;;2.92;;
66342;SDS011;53144;51.524;5.080;2022-11-21T15:26:31;9.20;;;3.38;;
66342;SDS011;53144;51.524;5.080;2022-11-21T15:29:15;6.20;;;3.08;;
66342;SDS011;53144;51.524;5.080;2022-11-21T15:34:51;11.15;;;3.10;;
66342;SDS011;53144;51.524;5.080;2022-11-21T15:37:20;8.32;;;3.10;;
66342;SDS011;53144;51.524;5.080;2022-11-21T15:43:42;7.03;;;3.03;;
66342;SDS011;53144;51.524;5.080;2022-11-21T15:46:26;8.75;;;3.30;;
66342;SDS011;53144;51.524;5.080;2022-11-21T15:51:56;9.25;;;2.88;;
66342;SDS011;53144;51.524;5.080;2022-11-21T16:01:24;8.93;;;2.90;;
66342;SDS011;53144;51.524;5.080;2022-11-21T16:07:49;8.00;;;3.00;;
66342;SDS011;53144;51.524;5.080;2022-11-21T16:10:23;14.00;;;5.35;;
66342;SDS011;53144;51.524;5.080;2022-11-21T16:12:52;9.27;;;3.53;;
66342;SDS011;53144;51.524;5.080;2022-11-21T16:15:18;10.63;;;3.05;;
66342;SDS011;53144;51.524;5.080;2022-11-21T16:18:21;6.15;;;3.40;;
66342;SDS011;53144;51.524;5.080;2022-11-21T16:23:47;7.95;;;2.75;;
66342;SDS011;53144;51.524;5.080;2022-11-21T16:26:19;7.60;;;2.95;;
66342;SDS011;53144;51.524;5.080;2022-11-21T16:32:19;9.07;;;3.58;;
66342;SDS011;53144;51.524;5.080;2022-11-21T16:34:48;9.10;;;3.58;;
66342;SDS011;53144;51.524;5.080;2022-11-21T16:43:53;7.07;;;3.42;;
66342;SDS011;53144;51.524;5.080;2022-11-21T16:46:39;14.32;;;4.43;;
66342;SDS011;53144;51.524;5.080;2022-11-21T16:49:18;9.50;;;3.40;;
66342;SDS011;53144;51.524;5.080;2022-11-21T16:58:56;11.48;;;4.78;;
66342;SDS011;53144;51.524;5.080;2022-11-21T17:01:50;9.25;;;3.65;;
66342;SDS011;53144;51.524;5.080;2022-11-21T17:07:48;8.95;;;3.00;;
66342;SDS011;53144;51.524;5.080;2022-11-21T17:17:12;9.40;;;3.40;;
66342;SDS011;53144;51.524;5.080;2022-11-21T17:19:54;10.43;;;3.20;;
66342;SDS011;53144;51.524;5.080;2022-11-21T17:22:24;6.68;;;2.78;;
66342;SDS011;53144;51.524;5.080;2022-11-21T17:34:21;8.82;;;2.65;;
66342;SDS011;53144;51.524;5.080;2022-11-21T17:40:16;11.95;;;3.05;;
66342;SDS011;53144;51.524;5.080;2022-11-21T17:42:51;9.25;;;3.03;;
66342;SDS011;53144;51.524;5.080;2022-11-21T17:45:17;12.20;;;3.28;;
66342;SDS011;53144;51.524;5.080;2022-11-21T17:47:42;12.98;;;3.28;;
66342;SDS011;53144;51.524;5.080;2022-11-21T17:50:10;16.52;;;2.70;;
66342;SDS011;53144;51.524;5.080;2022-11-21T17:52:36;13.10;;;3.65;;
66342;SDS011;53144;51.524;5.080;2022-11-21T17:55:02;11.82;;;3.78;;
66342;SDS011;53144;51.524;5.080;2022-11-21T17:57:29;8.68;;;2.97;;
66342;SDS011;53144;51.524;5.080;2022-11-21T17:59:54;10.02;;;3.40;;
66342;SDS011;53144;51.524;5.080;2022-11-21T18:02:19;15.32;;;3.47;;
66342;SDS011;53144;51.524;5.080;2022-11-21T18:04:46;9.98;;;3.47;;
66342;SDS011;53144;51.524;5.080;2022-11-21T18:07:11;8.57;;;2.80;;
66342;SDS011;53144;51.524;5.080;2022-11-21T18:09:37;15.90;;;3.85;;
66342;SDS011;53144;51.524;5.080;2022-11-21T18:12:06;13.35;;;3.33;;
66342;SDS011;53144;51.524;5.080;2022-11-21T18:14:32;9.50;;;3.35;;
66342;SDS011;53144;51.524;5.080;2022-11-21T18:16:57;11.60;;;3.33;;
66342;SDS011;53144;51.524;5.080;2022-11-21T18:19:23;7.03;;;3.35;;
66342;SDS011;53144;51.524;5.080;2022-11-21T18:21:48;8.40;;;3.38;;
66342;SDS011;53144;51.524;5.080;2022-11-21T18:24:14;8.05;;;3.35;;
66342;SDS011;53144;51.524;5.080;2022-11-21T18:26:39;9.43;;;3.50;;
66342;SDS011;53144;51.524;5.080;2022-11-21T18:29:06;14.80;;;3.40;;
66342;SDS011;53144;51.524;5.080;2022-11-21T18:31:32;15.27;;;3.83;;
66342;SDS011;53144;51.524;5.080;2022-11-21T18:34:01;9.77;;;3.30;;
66342;SDS011;53144;51.524;5.080;2022-11-21T18:36:30;12.38;;;3.17;;
66342;SDS011;53144;51.524;5.080;2022-11-21T18:38:57;13.60;;;4.15;;
66342;SDS011;53144;51.524;5.080;2022-11-21T18:43:59;11.48;;;3.63;;
66342;SDS011;53144;51.524;5.080;2022-11-21T18:46:26;11.55;;;3.95;;
66342;SDS011;53144;51.524;5.080;2022-11-21T18:48:53;8.23;;;3.20;;
66342;SDS011;53144;51.524;5.080;2022-11-21T18:51:24;10.57;;;3.42;;
66342;SDS011;53144;51.524;5.080;2022-11-21T18:53:55;12.20;;;4.05;;
66342;SDS011;53144;51.524;5.080;2022-11-21T18:56:22;8.75;;;3.47;;
66342;SDS011;53144;51.524;5.080;2022-11-21T18:58:49;13.80;;;4.00;;
66342;SDS011;53144;51.524;5.080;2022-11-21T19:01:16;12.40;;;3.80;;
66342;SDS011;53144;51.524;5.080;2022-11-21T19:03:45;10.10;;;3.30;;
66342;SDS011;53144;51.524;5.080;2022-11-21T19:06:12;6.57;;;2.90;;
66342;SDS011;53144;51.524;5.080;2022-11-21T19:08:42;8.35;;;3.33;;
66342;SDS011;53144;51.524;5.080;2022-11-21T19:11:17;13.77;;;3.97;;
66342;SDS011;53144;51.524;5.080;2022-11-21T19:13:44;12.02;;;3.25;;
66342;SDS011;53144;51.524;5.080;2022-11-21T19:16:14;12.68;;;4.35;;
66342;SDS011;53144;51.524;5.080;2022-11-21T19:18:41;9.75;;;3.30;;
66342;SDS011;53144;51.524;5.080;2022-11-21T19:21:14;8.82;;;3.55;;
66342;SDS011;53144;51.524;5.080;2022-11-21T19:23:42;15.98;;;4.13;;
66342;SDS011;53144;51.524;5.080;2022-11-21T19:26:09;14.15;;;6.00;;
66342;SDS011;53144;51.524;5.080;2022-11-21T19:28:38;11.85;;;4.10;;
66342;SDS011;53144;51.524;5.080;2022-11-21T19:33:32;12.23;;;3.72;;
66342;SDS011;53144;51.524;5.080;2022-11-21T19:35:58;9.98;;;4.18;;
66342;SDS011;53144;51.524;5.080;2022-11-21T19:38:44;9.50;;;3.78;;
66342;SDS011;53144;51.524;5.080;2022-11-21T19:41:14;10.77;;;3.65;;